Time;durP1;ratioP1;P1;durP2;ratioP2;P2;SDS_P1;SDS_P2;PMS_P1;PMS_P2;Temp;Humidity;BMP_temperature;BMP_pressure;BME280_temperature;BME280_humidity;BME280_pressure;Samples;Min_cycle;Max_cycle;Signal;HPM_P1;HPM_P2
2024/01/26 00:01:23;;;;;;;45.08;39.33;;;7.60;80.00;;;;;;12559884;28;20351;-74
2024/01/26 00:07:24;;;;;;;48.35;43.08;;;7.40;80.30;;;;;;12559629;28;20033;-74
2024/01/26 00:13:52;;;;;;;68.68;62.45;;;7.30;80.10;;;;;;12559344;28;20351;-74
2024/01/26 00:19:55;;;;;;;48.30;43.38;;;7.10;80.80;;;;;;12559058;28;20037;-74
2024/01/26 00:25:57;;;;;;;53.60;46.38;;;6.90;80.90;;;;;;12558809;28;20033;-74
2024/01/26 00:31:58;;;;;;;65.20;59.03;;;6.90;81.40;;;;;;12541062;28;20033;-74
2024/01/26 00:38:00;;;;;;;48.40;43.33;;;7.20;81.30;;;;;;12540502;28;20461;-74
2024/01/26 00:44:02;;;;;;;53.35;47.60;;;7.30;81.00;;;;;;12540147;28;20351;-74
2024/01/26 00:50:04;;;;;;;55.13;48.17;;;7.40;80.50;;;;;;12557667;28;20037;-74
2024/01/26 00:56:05;;;;;;;52.63;47.38;;;7.30;80.30;;;;;;12557544;28;20040;-74
2024/01/26 01:02:08;;;;;;;46.22;41.38;;;7.30;80.10;;;;;;12539927;28;20394;-74
2024/01/26 01:08:09;;;;;;;87.30;80.13;;;7.30;80.00;;;;;;12556998;28;20439;-74
2024/01/26 01:14:12;;;;;;;59.03;52.70;;;7.30;80.10;;;;;;12556499;28;20041;-74
2024/01/26 01:20:14;;;;;;;46.80;41.90;;;7.20;80.20;;;;;;12557139;28;20277;-74
2024/01/26 01:26:16;;;;;;;63.40;51.03;;;7.20;80.10;;;;;;12557153;28;20346;-74
2024/01/26 01:32:17;;;;;;;52.88;44.38;;;7.20;80.00;;;;;;12555662;28;20043;-74
2024/01/26 01:38:19;;;;;;;54.40;48.50;;;7.30;80.20;;;;;;12554588;28;20044;-74
2024/01/26 01:44:21;;;;;;;54.78;48.70;;;7.30;80.10;;;;;;12555111;28;20033;-74
2024/01/26 01:50:22;;;;;;;56.75;50.45;;;7.10;79.90;;;;;;12554954;28;20032;-74
2024/01/26 01:56:25;;;;;;;75.47;67.93;;;7.00;79.90;;;;;;12537007;28;20037;-74
2024/01/26 02:02:27;;;;;;;62.05;55.42;;;6.80;79.80;;;;;;12555126;28;20032;-74
2024/01/26 02:08:28;;;;;;;55.85;48.92;;;6.90;79.80;;;;;;12554228;28;20032;-74
2024/01/26 02:14:30;;;;;;;67.88;61.72;;;6.90;79.60;;;;;;12554024;28;20064;-74
2024/01/26 02:20:31;;;;;;;71.25;63.50;;;6.90;79.50;;;;;;12554793;28;20032;-74
2024/01/26 02:26:33;;;;;;;54.25;46.03;;;6.90;79.50;;;;;;12536002;28;20040;-74
2024/01/26 02:32:35;;;;;;;80.90;72.82;;;6.90;79.40;;;;;;12536075;28;20037;-74
2024/01/26 02:38:36;;;;;;;63.88;56.97;;;6.80;79.40;;;;;;12553519;28;20037;-74
2024/01/26 02:44:38;;;;;;;52.22;46.75;;;6.70;79.30;;;;;;12552780;28;20056;-74
2024/01/26 02:50:40;;;;;;;63.70;57.15;;;6.70;79.50;;;;;;12544377;28;20359;-74
2024/01/26 02:56:41;;;;;;;48.15;43.03;;;6.70;79.70;;;;;;12562953;28;20036;-74
2024/01/26 03:02:43;;;;;;;69.53;63.45;;;6.70;79.70;;;;;;12544876;28;20033;-74
2024/01/26 03:08:44;;;;;;;49.35;44.28;;;6.40;79.60;;;;;;12544851;28;20041;-74
2024/01/26 03:14:46;;;;;;;47.08;42.05;;;6.20;80.10;;;;;;12545137;28;20050;-75
2024/01/26 03:20:49;;;;;;;62.63;56.90;;;6.00;80.40;;;;;;12561873;28;20028;-75
2024/01/26 03:26:51;;;;;;;60.53;53.92;;;5.90;80.90;;;;;;12562118;28;20040;-75
2024/01/26 03:32:54;;;;;;;68.55;61.13;;;6.40;81.80;;;;;;12561401;28;20040;-75
2024/01/26 03:38:56;;;;;;;76.68;69.75;;;6.80;81.60;;;;;;12543341;28;20037;-75
2024/01/26 03:44:58;;;;;;;85.47;78.72;;;6.80;80.70;;;;;;12560742;28;20042;-75
2024/01/26 03:50:59;;;;;;;50.88;45.72;;;6.80;80.30;;;;;;12560680;28;20032;-75
2024/01/26 03:57:01;;;;;;;69.45;58.45;;;6.70;79.90;;;;;;12560198;28;20040;-75
2024/01/26 04:03:03;;;;;;;64.70;58.30;;;6.70;79.80;;;;;;12558893;28;20048;-75
2024/01/26 04:09:06;;;;;;;48.53;42.72;;;6.60;79.40;;;;;;12558815;28;20344;-75
2024/01/26 04:15:08;;;;;;;64.70;59.38;;;6.10;79.80;;;;;;12559369;28;20029;-75
2024/01/26 04:21:10;;;;;;;48.20;44.15;;;5.80;80.30;;;;;;12541078;28;20060;-75
2024/01/26 04:27:12;;;;;;;43.70;39.10;;;5.50;81.00;;;;;;12558718;28;20037;-75
2024/01/26 04:33:13;;;;;;;46.15;41.60;;;5.80;80.80;;;;;;12558563;28;20040;-75
2024/01/26 04:39:16;;;;;;;43.13;38.78;;;5.90;80.70;;;;;;12558856;28;20029;-75
2024/01/26 04:45:17;;;;;;;42.33;36.00;;;6.10;80.20;;;;;;12540864;28;20040;-75
2024/01/26 04:51:21;;;;;;;46.03;41.58;;;6.30;80.00;;;;;;12557667;28;20029;-75
2024/01/26 04:57:31;;;;;;;45.40;40.67;;;6.60;79.80;;;;;;12557401;28;20036;-75
2024/01/26 05:03:35;;;;;;;47.05;42.35;;;6.50;79.70;;;;;;12539551;28;20041;-75
2024/01/26 05:09:39;;;;;;;81.38;75.43;;;6.60;79.70;;;;;;12539648;28;20033;-75
2024/01/26 05:15:41;;;;;;;57.80;51.67;;;6.30;79.60;;;;;;12555348;28;20343;-75
2024/01/26 05:21:43;;;;;;;45.40;40.80;;;6.40;80.00;;;;;;12538300;28;20049;-75
2024/01/26 05:27:45;;;;;;;78.80;72.55;;;6.70;79.70;;;;;;12556025;28;20040;-75
2024/01/26 05:33:47;;;;;;;44.45;39.97;;;6.60;79.20;;;;;;12539382;28;20040;-75
2024/01/26 05:39:49;;;;;;;64.63;58.33;;;6.20;79.40;;;;;;12556068;28;20029;-75
2024/01/26 05:45:51;;;;;;;42.38;38.13;;;6.10;80.50;;;;;;12555823;28;20033;-75
2024/01/26 05:51:53;;;;;;;61.30;56.33;;;6.60;79.90;;;;;;12553810;28;20033;-75
2024/01/26 05:57:56;;;;;;;51.55;44.22;;;6.40;79.70;;;;;;12554733;28;20060;-75
2024/01/26 06:04:01;;;;;;;48.83;44.03;;;6.70;79.60;;;;;;12554444;28;20037;-75
2024/01/26 06:10:06;;;;;;;52.42;47.33;;;6.60;79.20;;;;;;12521660;23;20053;-75
2024/01/26 06:16:20;;;;;;;55.97;49.88;;;6.50;79.70;;;;;;12487183;28;20029;-75
2024/01/26 06:22:22;;;;;;;53.65;46.30;;;6.90;79.30;;;;;;12503848;28;20029;-75
2024/01/26 06:28:23;;;;;;;46.60;40.53;;;7.10;78.30;;;;;;12504324;28;20085;-75
2024/01/26 06:34:25;;;;;;;73.13;66.88;;;7.20;77.70;;;;;;12504325;28;20041;-75
2024/01/26 06:40:27;;;;;;;40.67;36.45;;;7.20;77.50;;;;;;12542400;28;20029;-75
2024/01/26 06:46:29;;;;;;;40.08;36.05;;;7.20;77.30;;;;;;12493661;28;20025;-75
2024/01/26 06:52:31;;;;;;;56.15;51.25;;;7.20;77.10;;;;;;12504840;28;20030;-75
2024/01/26 06:58:34;;;;;;;68.47;63.00;;;7.00;77.60;;;;;;12503662;28;20321;-75
2024/01/26 07:04:35;;;;;;;69.68;63.67;;;7.10;77.60;;;;;;12503414;28;20040;-75
2024/01/26 07:10:52;;;;;;;48.53;42.03;;;7.20;77.80;;;;;;12503731;28;20415;-75
2024/01/26 07:16:54;;;;;;;51.80;41.15;;;7.40;78.50;;;;;;12485719;28;20029;-75
2024/01/26 07:22:55;;;;;;;89.10;82.40;;;7.40;78.10;;;;;;12485291;28;20431;-75
2024/01/26 07:28:59;;;;;;;88.30;81.05;;;7.30;78.30;;;;;;12503074;28;20231;-75
2024/01/26 07:35:19;;;;;;;76.63;69.18;;;7.20;78.30;;;;;;12456122;28;20045;-75
2024/01/26 07:41:22;;;;;;;53.10;47.60;;;7.20;78.00;;;;;;12511706;28;20040;-74
2024/01/26 07:47:41;;;;;;;56.20;49.58;;;7.30;78.10;;;;;;12493811;28;20035;-74
2024/01/26 07:53:42;;;;;;;53.70;48.13;;;7.30;78.20;;;;;;12493677;28;20356;-74
2024/01/26 07:59:44;;;;;;;74.50;67.03;;;7.30;78.10;;;;;;12510773;28;20036;-74
2024/01/26 08:05:45;;;;;;;54.08;48.47;;;7.20;78.30;;;;;;12482768;28;20037;-74
2024/01/26 08:11:47;;;;;;;58.08;51.60;;;7.30;78.50;;;;;;12502547;28;20025;-74
2024/01/26 08:17:49;;;;;;;54.58;48.75;;;7.20;78.80;;;;;;12493344;28;20030;-74
2024/01/26 08:23:50;;;;;;;99.32;91.10;;;7.40;79.10;;;;;;12510452;28;20029;-74
2024/01/26 08:29:52;;;;;;;75.05;67.95;;;7.50;79.30;;;;;;12510133;28;20029;-73
2024/01/26 08:35:54;;;;;;;54.40;48.90;;;7.60;79.50;;;;;;12508671;28;20029;-74
2024/01/26 08:41:56;;;;;;;70.47;63.70;;;7.60;79.60;;;;;;12509394;28;20033;-74
2024/01/26 08:47:58;;;;;;;67.25;61.45;;;7.40;80.10;;;;;;12507626;28;20044;-74
2024/01/26 08:54:00;;;;;;;58.63;52.20;;;7.50;80.50;;;;;;12506675;28;20033;-75
2024/01/26 09:00:08;;;;;;;57.13;44.90;;;7.50;80.90;;;;;;12506590;28;20037;-74
2024/01/26 09:06:10;;;;;;;108.38;99.53;;;7.70;81.00;;;;;;12512376;28;20033;-74
2024/01/26 09:12:12;;;;;;;81.65;74.18;;;7.80;81.40;;;;;;12539120;28;20041;-74
2024/01/26 09:18:14;;;;;;;86.20;78.97;;;8.00;81.60;;;;;;12522348;28;20037;-75
2024/01/26 09:24:15;;;;;;;81.10;73.97;;;8.10;81.60;;;;;;12556606;28;20036;-74
2024/01/26 09:30:17;;;;;;;85.63;78.28;;;8.10;82.00;;;;;;12448182;28;20022;-74
2024/01/26 09:36:19;;;;;;;85.13;78.10;;;8.20;82.10;;;;;;12439632;28;20042;-75
2024/01/26 09:42:21;;;;;;;74.68;68.38;;;8.20;82.20;;;;;;12441206;28;20034;-75
2024/01/26 09:48:24;;;;;;;101.00;94.25;;;8.40;82.50;;;;;;12456477;28;20030;-75
2024/01/26 09:54:27;;;;;;;104.85;97.60;;;8.50;82.80;;;;;;12456199;28;20037;-75
2024/01/26 10:00:29;;;;;;;73.85;67.60;;;8.60;82.80;;;;;;12437886;28;20049;-75
2024/01/26 10:06:30;;;;;;;68.57;62.85;;;8.40;82.70;;;;;;12438225;28;20085;-74
2024/01/26 10:12:32;;;;;;;77.95;71.82;;;8.40;83.50;;;;;;12455741;28;20030;-74
2024/01/26 10:18:45;;;;;;;93.88;87.50;;;8.60;83.60;;;;;;12438184;28;20030;-75
2024/01/26 10:24:47;;;;;;;110.57;103.78;;;8.80;83.60;;;;;;12422170;28;20042;-75
2024/01/26 10:30:49;;;;;;;143.52;134.68;;;8.90;83.60;;;;;;12454847;28;20022;-74
2024/01/26 10:36:52;;;;;;;105.47;99.43;;;8.70;83.30;;;;;;12475999;28;20040;-75
2024/01/26 10:49:49;;;;;;;137.90;128.32;;;8.90;83.70;;;;;;13725406;23;20074;-73
2024/01/26 10:55:53;;;;;;;154.88;145.98;;;9.00;83.60;;;;;;12165777;29;20036;-74
2024/01/26 11:01:55;;;;;;;150.38;141.57;;;9.00;83.70;;;;;;12129874;29;20040;-74
2024/01/26 11:08:00;;;;;;;174.95;165.20;;;9.10;83.70;;;;;;12143619;29;20048;-74
2024/01/26 11:14:03;;;;;;;164.88;155.23;;;9.20;83.70;;;;;;12177170;29;20029;-73
2024/01/26 11:20:30;;;;;;;192.77;182.85;;;9.40;83.90;;;;;;12160350;29;20064;-74
2024/01/26 11:26:32;;;;;;;150.77;141.27;;;9.60;83.60;;;;;;12176609;29;20040;-75
2024/01/26 11:32:34;;;;;;;146.07;136.32;;;9.70;82.80;;;;;;12175944;29;20033;-74
2024/01/26 11:38:36;;;;;;;169.80;159.70;;;9.90;82.10;;;;;;12175091;29;20040;-74
2024/01/26 11:44:41;;;;;;;174.77;163.60;;;10.00;81.40;;;;;;12174623;29;20055;-75
2024/01/26 11:50:46;;;;;;;138.60;129.77;;;10.20;81.40;;;;;;12174648;29;20040;-76
2024/01/26 11:56:48;;;;;;;125.63;116.68;;;10.30;81.10;;;;;;12176253;29;20029;-75
2024/01/26 12:02:49;;;;;;;95.05;87.70;;;10.50;81.30;;;;;;12175068;29;20110;-75
2024/01/26 12:08:55;;;;;;;64.03;58.70;;;10.70;81.30;;;;;;12174715;29;20440;-75
2024/01/26 12:14:57;;;;;;;57.30;52.00;;;10.70;81.00;;;;;;12174605;29;20040;-75
2024/01/26 12:20:58;;;;;;;55.17;50.38;;;10.60;81.20;;;;;;12157093;29;20048;-75
2024/01/26 12:27:02;;;;;;;64.25;58.00;;;10.70;81.20;;;;;;12174051;29;20040;-75
2024/01/26 12:33:06;;;;;;;84.38;77.80;;;10.70;80.50;;;;;;12174025;29;20052;-75
2024/01/26 12:39:07;;;;;;;66.10;60.33;;;10.60;80.20;;;;;;12174862;29;20029;-75
2024/01/26 12:45:09;;;;;;;72.78;68.03;;;10.70;80.80;;;;;;12172312;29;20056;-74
2024/01/26 12:51:11;;;;;;;73.85;68.72;;;10.70;81.40;;;;;;12169072;29;20033;-74
2024/01/26 12:57:13;;;;;;;69.90;64.78;;;10.70;81.50;;;;;;12167605;29;20040;-74
2024/01/26 13:03:15;;;;;;;56.88;51.95;;;10.80;82.00;;;;;;12170754;29;20043;-74
2024/01/26 13:09:17;;;;;;;42.63;36.58;;;10.90;82.10;;;;;;12167683;29;20036;-75
2024/01/26 13:15:20;;;;;;;38.15;33.35;;;11.00;82.10;;;;;;12151043;29;20036;-74
2024/01/26 13:21:22;;;;;;;33.25;26.42;;;11.20;82.70;;;;;;12149605;29;20044;-74
2024/01/26 13:27:24;;;;;;;37.85;32.17;;;11.30;82.30;;;;;;12166865;29;20048;-75
2024/01/26 13:33:26;;;;;;;40.53;32.30;;;11.30;82.00;;;;;;12154532;29;20048;-75
2024/01/26 13:39:28;;;;;;;37.20;31.05;;;11.30;81.70;;;;;;12171398;29;20028;-75
2024/01/26 13:45:30;;;;;;;27.23;24.25;;;11.20;81.20;;;;;;12171034;29;20040;-75
2024/01/26 13:51:32;;;;;;;29.58;23.95;;;11.20;81.20;;;;;;12169540;29;20325;-75
2024/01/26 13:57:34;;;;;;;30.92;27.85;;;11.40;81.90;;;;;;12168139;29;20040;-75
2024/01/26 14:03:38;;;;;;;29.15;22.98;;;11.20;81.90;;;;;;12166926;29;20048;-75
2024/01/26 14:09:41;;;;;;;39.05;35.75;;;11.20;82.50;;;;;;12152193;29;20383;-75
2024/01/26 14:15:43;;;;;;;39.42;36.72;;;11.10;82.80;;;;;;12131621;29;20055;-75
2024/01/26 14:21:45;;;;;;;52.00;48.17;;;10.90;82.90;;;;;;12148210;29;20051;-75
2024/01/26 14:27:49;;;;;;;54.08;50.47;;;10.90;83.30;;;;;;12167984;29;20448;-75
2024/01/26 14:33:51;;;;;;;55.60;50.65;;;11.10;83.40;;;;;;12152901;29;20044;-75
2024/01/26 14:39:55;;;;;;;36.90;33.15;;;11.10;83.40;;;;;;12167788;29;20025;-75
2024/01/26 14:45:56;;;;;;;71.95;67.40;;;11.00;83.40;;;;;;12175568;29;20467;-75
2024/01/26 14:51:58;;;;;;;112.38;104.85;;;10.80;83.10;;;;;;12178900;29;20035;-75
2024/01/26 14:58:00;;;;;;;88.15;82.10;;;10.70;83.30;;;;;;12157704;29;20044;-75
2024/01/26 15:04:03;;;;;;;110.60;104.25;;;10.60;83.20;;;;;;12144361;29;20037;-75
2024/01/26 15:10:07;;;;;;;115.43;108.80;;;10.60;83.60;;;;;;12131163;29;20040;-75
2024/01/26 15:16:14;;;;;;;87.30;81.82;;;10.60;83.60;;;;;;12136034;29;20079;-75
2024/01/26 15:22:15;;;;;;;101.82;96.70;;;10.70;83.90;;;;;;12136302;29;20053;-75
2024/01/26 15:28:19;;;;;;;93.43;87.75;;;10.80;83.80;;;;;;12160391;29;20056;-75
2024/01/26 15:34:21;;;;;;;113.55;106.15;;;10.60;84.00;;;;;;12160335;29;20071;-75
2024/01/26 15:40:23;;;;;;;122.03;114.53;;;10.50;84.50;;;;;;12176680;29;20041;-75
2024/01/26 15:46:24;;;;;;;115.28;107.75;;;10.70;84.80;;;;;;12175714;29;20056;-75
2024/01/26 15:52:29;;;;;;;81.32;75.38;;;10.90;84.70;;;;;;12144520;29;20343;-75
2024/01/26 15:58:31;;;;;;;107.90;99.68;;;10.90;84.30;;;;;;12174351;29;20036;-75
2024/01/26 16:04:32;;;;;;;112.53;104.47;;;10.90;84.50;;;;;;12175377;29;20039;-75
2024/01/26 16:10:41;;;;;;;101.82;94.60;;;10.80;84.30;;;;;;12174727;29;20043;-75
2024/01/26 16:16:43;;;;;;;99.85;93.22;;;10.70;84.60;;;;;;12174556;29;20032;-74
2024/01/26 16:22:45;;;;;;;96.32;89.65;;;10.80;84.50;;;;;;12158659;29;20048;-74
2024/01/26 16:28:47;;;;;;;136.23;128.30;;;10.80;84.40;;;;;;12174827;29;20336;-74
2024/01/26 16:34:49;;;;;;;152.50;143.68;;;10.60;84.20;;;;;;12157334;29;20049;-74
2024/01/26 16:40:50;;;;;;;146.57;137.73;;;10.50;84.50;;;;;;12174145;29;20024;-74
2024/01/26 16:46:52;;;;;;;152.98;143.35;;;10.40;84.50;;;;;;12174255;29;20056;-74
2024/01/26 16:52:54;;;;;;;114.72;107.90;;;10.50;84.30;;;;;;12171902;29;20447;-74
2024/01/26 16:58:56;;;;;;;175.95;165.32;;;10.50;84.00;;;;;;12134360;29;20056;-74
2024/01/26 17:04:59;;;;;;;142.68;133.40;;;10.30;84.20;;;;;;12137968;29;20041;-74
2024/01/26 17:11:02;;;;;;;124.45;116.82;;;10.20;84.20;;;;;;12172127;29;20036;-74
2024/01/26 17:17:04;;;;;;;139.00;130.80;;;10.20;84.10;;;;;;12171951;29;20040;-74
2024/01/26 17:23:06;;;;;;;133.50;124.15;;;10.20;83.90;;;;;;12145285;29;20033;-74
2024/01/26 17:29:08;;;;;;;152.50;143.27;;;10.20;83.90;;;;;;12123578;29;20459;-74
2024/01/26 17:35:10;;;;;;;143.48;134.95;;;10.10;83.70;;;;;;12128457;29;20043;-74
2024/01/26 17:41:11;;;;;;;155.60;145.57;;;10.00;83.70;;;;;;12169192;29;20028;-74
2024/01/26 17:47:13;;;;;;;156.27;146.27;;;10.20;83.60;;;;;;12169774;29;20044;-75
2024/01/26 17:53:15;;;;;;;144.60;135.35;;;10.20;83.60;;;;;;12123821;29;20029;-75
2024/01/26 17:59:17;;;;;;;161.18;150.90;;;10.10;83.40;;;;;;12122064;29;20041;-75
2024/01/26 18:05:21;;;;;;;121.20;111.78;;;10.00;83.80;;;;;;12123708;29;20037;-75
2024/01/26 18:11:22;;;;;;;164.68;154.20;;;9.80;83.70;;;;;;12160385;29;20048;-75
2024/01/26 18:17:24;;;;;;;161.40;151.55;;;9.80;83.70;;;;;;12168849;29;20028;-75
2024/01/26 18:23:26;;;;;;;163.48;152.88;;;9.80;83.40;;;;;;12149251;29;20055;-74
2024/01/26 18:29:29;;;;;;;139.07;129.55;;;9.70;83.50;;;;;;12125143;29;20036;-75
2024/01/26 18:35:30;;;;;;;99.07;90.57;;;9.70;83.30;;;;;;12129277;29;20449;-75
2024/01/26 18:41:32;;;;;;;74.80;67.28;;;9.40;83.40;;;;;;12126243;29;20029;-75
2024/01/26 18:47:34;;;;;;;126.32;116.22;;;9.40;83.70;;;;;;12133901;29;20083;-75
2024/01/26 18:53:35;;;;;;;93.38;84.70;;;9.50;83.30;;;;;;12132463;23;20424;-75
2024/01/26 18:59:37;;;;;;;130.63;120.82;;;9.60;83.00;;;;;;12090905;29;20049;-75
2024/01/26 19:05:39;;;;;;;78.57;71.10;;;9.50;82.80;;;;;;12104993;29;20048;-75
2024/01/26 19:11:41;;;;;;;76.75;69.53;;;9.40;83.10;;;;;;12121462;29;20044;-74
2024/01/26 19:17:43;;;;;;;119.85;110.53;;;9.60;82.80;;;;;;12121400;29;20348;-75
2024/01/26 19:23:45;;;;;;;96.47;88.28;;;9.30;82.80;;;;;;12121310;29;20040;-75
2024/01/26 19:29:46;;;;;;;132.07;122.43;;;9.50;83.00;;;;;;12107794;29;20045;-75
2024/01/26 19:35:48;;;;;;;113.32;105.07;;;9.50;82.90;;;;;;12129612;29;20061;-75
2024/01/26 19:41:50;;;;;;;100.95;93.35;;;9.30;82.90;;;;;;12112690;29;20033;-75
2024/01/26 19:47:52;;;;;;;92.07;84.68;;;9.50;83.10;;;;;;12129001;29;20036;-75
2024/01/26 19:53:54;;;;;;;102.47;93.72;;;9.50;82.80;;;;;;12129515;29;20092;-75
2024/01/26 19:59:56;;;;;;;87.40;79.40;;;9.30;82.70;;;;;;12128847;29;20048;-75
2024/01/26 20:05:57;;;;;;;92.95;84.43;;;9.30;82.60;;;;;;12111866;29;20044;-75
2024/01/26 20:11:59;;;;;;;114.70;105.32;;;9.40;82.60;;;;;;12112454;29;20048;-75
2024/01/26 20:18:01;;;;;;;88.35;79.85;;;9.40;82.50;;;;;;12111776;29;20052;-75
2024/01/26 20:24:03;;;;;;;105.40;95.72;;;9.30;82.50;;;;;;12128244;29;20447;-75
2024/01/26 20:30:07;;;;;;;110.95;100.15;;;9.20;82.40;;;;;;12127300;29;20029;-75
2024/01/26 20:36:09;;;;;;;85.75;77.43;;;9.20;82.30;;;;;;12126937;29;20055;-75
2024/01/26 20:42:13;;;;;;;93.75;85.07;;;9.10;81.90;;;;;;12095260;29;20045;-75
2024/01/26 20:48:15;;;;;;;86.65;78.88;;;9.00;82.00;;;;;;12126335;29;20045;-75
2024/01/26 20:54:21;;;;;;;96.43;87.65;;;8.60;82.10;;;;;;12126929;29;20033;-75
2024/01/26 21:00:23;;;;;;;110.20;99.00;;;8.40;82.90;;;;;;12126113;29;20048;-75
2024/01/26 21:06:24;;;;;;;87.65;80.00;;;8.80;83.20;;;;;;12125673;29;20040;-75
2024/01/26 21:12:26;;;;;;;84.15;76.15;;;8.80;82.40;;;;;;12125368;29;20040;-75
2024/01/26 21:18:28;;;;;;;105.85;96.50;;;8.80;82.30;;;;;;12108649;29;20044;-75
2024/01/26 21:24:30;;;;;;;91.55;82.63;;;8.50;82.60;;;;;;12108746;29;20043;-75
2024/01/26 21:30:32;;;;;;;88.38;78.97;;;8.60;82.60;;;;;;12125196;29;20036;-75
2024/01/26 21:36:33;;;;;;;106.22;96.30;;;8.60;82.20;;;;;;12124262;29;20092;-75
2024/01/26 21:42:36;;;;;;;88.85;80.70;;;8.60;82.10;;;;;;12124062;29;20048;-75
2024/01/26 21:48:38;;;;;;;84.22;76.53;;;8.70;81.90;;;;;;12124362;29;20056;-74
2024/01/26 21:54:39;;;;;;;96.85;87.22;;;8.60;81.50;;;;;;12122868;29;20028;-75
2024/01/26 22:00:41;;;;;;;73.22;65.05;;;8.40;81.90;;;;;;12123621;29;20062;-75
2024/01/26 22:06:43;;;;;;;88.20;80.13;;;8.50;81.70;;;;;;12107257;29;20470;-75
2024/01/26 22:12:45;;;;;;;89.78;82.05;;;8.70;81.30;;;;;;12119596;29;20391;-75
2024/01/26 22:18:46;;;;;;;96.65;86.88;;;8.50;81.30;;;;;;12121843;29;20443;-75
2024/01/26 22:24:48;;;;;;;90.88;82.75;;;8.60;81.60;;;;;;12122741;29;20048;-75
2024/01/26 22:30:50;;;;;;;72.15;64.55;;;8.20;81.30;;;;;;12123137;29;20026;-75
2024/01/26 22:36:52;;;;;;;102.65;92.90;;;8.20;81.90;;;;;;12106599;29;20507;-74
2024/01/26 22:42:53;;;;;;;84.05;76.78;;;8.20;81.50;;;;;;12121805;29;20467;-74
2024/01/26 22:48:55;;;;;;;73.53;65.45;;;8.10;81.30;;;;;;12122067;29;20041;-74
2024/01/26 22:54:57;;;;;;;80.47;61.30;;;8.00;81.90;;;;;;12123357;29;20432;-74
2024/01/26 23:00:59;;;;;;;66.25;52.85;;;8.20;82.30;;;;;;12122793;29;20044;-74
2024/01/26 23:07:01;;;;;;;65.22;56.17;;;8.40;82.20;;;;;;12128249;29;20033;-74
2024/01/26 23:13:04;;;;;;;95.90;86.78;;;8.10;82.10;;;;;;12130889;29;20033;-75
2024/01/26 23:19:05;;;;;;;83.47;75.63;;;8.20;82.60;;;;;;12130570;29;20041;-74
2024/01/26 23:25:07;;;;;;;74.05;66.70;;;8.00;82.30;;;;;;12130827;29;20037;-74
2024/01/26 23:31:10;;;;;;;59.75;52.83;;;7.80;82.70;;;;;;12113456;29;20040;-74
2024/01/26 23:37:11;;;;;;;65.85;54.88;;;7.40;82.50;;;;;;12129710;29;20036;-74
2024/01/26 23:43:13;;;;;;;72.72;61.25;;;7.10;83.30;;;;;;12129511;29;20051;-74
2024/01/26 23:49:15;;;;;;;67.85;55.60;;;7.40;83.10;;;;;;12129091;29;20043;-75
2024/01/26 23:55:16;;;;;;;63.33;55.25;;;7.50;82.50;;;;;;12129035;29;20380;-75
